Date,TemperatureHighF,TemperatureAvgF,TemperatureLowF,DewpointHighF,DewpointAvgF,DewpointLowF,HumidityHigh,HumidityAvg,HumidityLow,PressureMaxIn,PressureMinIn,WindSpeedMaxMPH,WindSpeedAvgMPH,GustSpeedMaxMPH,PrecipitationSumIn
2013-2-1,34.3,18.2,12.2,27.8,6.2,1.9,97,59,46,30.10,29.81,24,10,24,0.11
2013-2-2,35.1,22.3,9.5,27.4,13.6,5.8,99,71,42,30.15,29.90,6,2,6,0.00
2013-2-3,35.6,27.9,21.6,27.2,22.2,17.7,92,79,65,29.89,29.77,25,11,25,0.34
2013-2-4,45.7,35.6,18.0,23.1,19.5,14.3,89,54,37,30.00,29.85,21,4,21,0.06
2013-2-5,47.1,39.6,29.8,34.4,29.2,21.5,91,67,45,29.92,29.86,14,4,14,0.01
2013-2-6,52.2,45.2,32.4,31.2,16.4,1.4,77,36,14,30.14,29.93,17,5,17,0.01
2013-2-7,39.7,36.6,30.9,34.4,30.0,20.4,99,78,56,30.19,30.03,6,2,6,0.17
2013-2-8,46.2,36.6,27.3,42.3,33.7,23.1,99,90,52,29.99,29.85,21,6,21,0.28
2013-2-9,51.1,33.1,24.6,23.2,15.7,6.2,86,55,17,30.25,29.95,24,8,24,0.13
2013-2-10,45.5,36.7,31.6,35.3,20.5,14.2,99,55,35,30.29,30.10,14,4,14,0.12
2013-2-11,56.1,48.6,20.7,55.4,39.6,9.8,99,74,39,30.08,29.95,19,5,19,0.12
2013-2-12,55.4,39.6,33.3,22.5,18.8,12.7,59,45,22,30.03,29.91,26,12,26,0.00
2013-2-13,43.5,37.3,31.8,43.3,37.0,30.9,99,99,99,29.77,29.61,23,4,23,0.31
2013-2-14,51.8,39.7,24.6,29.3,24.7,18.8,97,59,35,29.95,29.77,11,2,11,0.00
2013-2-15,55.8,41.4,25.2,36.0,29.7,22.6,99,69,30,30.01,29.91,11,4,11,0.06
2013-2-16,30.7,25.9,20.5,27.3,19.7,9.9,99,77,59,29.91,29.73,27,10,27,0.00
2013-2-17,27.7,17.9,12.0,8.1,5.2,1.1,73,58,39,30.00,29.80,27,14,27,0.05
2013-2-18,46.9,36.5,16.7,19.6,15.3,6.4,67,44,28,30.20,30.08,6,3,6,0.01
2013-2-19,47.5,37.0,30.0,38.7,23.9,18.2,99,61,42,30.07,29.81,30,9,30,0.12
2013-2-20,41.5,31.8,22.5,10.5,4.0,-1.2,56,32,17,30.01,29.87,22,10,30,0.05
2013-2-21,53.4,41.1,21.7,8.8,3.5,-0.2,56,24,12,30.09,29.98,14,6,14,0.00
2013-2-22,35.1,33.0,28.9,34.8,32.8,28.7,99,99,99,30.14,26.99,9,1,9,0.15
2013-2-23,51.4,43.7,32.0,49.0,42.8,31.8,99,97,87,30.00,29.82,6,1,6,0.24
2013-2-24,41.9,41.1,39.9,41.3,40.1,37.6,99,96,86,29.83,29.81,17,7,17,0.00
2013-2-25,42.8,32.5,26.4,23.7,21.2,18.4,80,63,45,30.05,29.96,8,3,8,0.00
2013-2-28,25.3,24.9,24.6,24.1,23.4,22.8,98,94,90,29.92,29.90,15,12,15,0.00